Oronoco, Minnesota
Current Conditions -  °F | °C
As of 3:33 PM on Saturday 20 Dec 2014 (Local Time) from K9MN Reporting Station
Overcast Overcast  
Wind Chill: 23°   Ceiling: 700
Heat Index: 31°   Visibility: 5mi
Dew Point: 29°   Wind: 8mph
Humidity: 95%   Direction: 130°SE
Pressure: 30.13"   Gusts: NA
Location:  44.17°N, 92.53°W
Report Text: K9MN 202133Z AUTO 13007KT 5SM BKN007 OVC013 M01/M01 A3013 RMK AO1 T10081015
Loading
Personal Weather Stations






























Interactive Weather Map New forecast layout! Learn more

10-Day Weather Forecast

Advertisements
Track Severe Weather on mobile